< < Back
Terminal Aerodrome Forecast


Current Version              Previous Versions:   1  2  3  4  5  6  7  8  9  

Terminal Aerodrome Forecast

063
FTUS42 KTAE 052320
TAFABY
TAF
KABY 052320Z 0600/0624 24004KT P6SM SCT250
      TEMPO 0600/0601 BKN025
     FM061400 27008KT P6SM SCT050=

Latest METAR

709
SAUS70 KWBC 060000 RRF
MTRABY
METAR KABY 052353Z 19007KT 10SM SCT019 26/22 A3015 RMK AO2 SLP207 60000
T02560217 10272 20233 53007


USA.gov is the U.S. government's official web portal to all federal, state and local government web resources and services.